createdAt,value
2018-12-26T00:02:27.010Z,98596.10
2018-12-26T00:05:01.439Z,98599.33
2018-12-26T00:07:36.888Z,98604.70
2018-12-26T00:10:07.969Z,98602.44
2018-12-26T00:12:43.066Z,98607.91
2018-12-26T00:15:21.404Z,98604.34
2018-12-26T00:17:54.449Z,98600.63
2018-12-26T00:20:27.410Z,98596.30
2018-12-26T00:23:01.606Z,98598.73
2018-12-26T00:25:35.942Z,98592.56
2018-12-26T00:28:10.169Z,98602.88
2018-12-26T00:30:42.748Z,98596.59
2018-12-26T00:33:16.164Z,98588.37
2018-12-26T00:35:51.482Z,98597.40
2018-12-26T00:38:26.189Z,98584.63
2018-12-26T00:40:58.021Z,98591.21
2018-12-26T00:43:33.067Z,98592.04
2018-12-26T00:46:08.870Z,98589.66
2018-12-26T00:48:42.444Z,98592.89
2018-12-26T00:51:26.017Z,98588.84
2018-12-26T00:54:03.364Z,98595.45
2018-12-26T00:56:41.316Z,98598.03
2018-12-26T00:59:17.808Z,98601.26
2018-12-26T01:01:52.720Z,98602.36
2018-12-26T01:04:27.554Z,98600.59
2018-12-26T01:07:00.290Z,98605.30
2018-12-26T01:09:32.206Z,98604.96
2018-12-26T01:12:05.471Z,98607.86
2018-12-26T01:14:40.943Z,98608.52
2018-12-26T01:17:15.512Z,98613.84
2018-12-26T01:20:03.795Z,98620.78
2018-12-26T01:22:39.278Z,98622.72
2018-12-26T01:25:12.179Z,98619.82
2018-12-26T01:27:47.030Z,98621.76
2018-12-26T01:30:20.638Z,98625.34
2018-12-26T01:33:00.060Z,98623.59
2018-12-26T01:35:38.302Z,98624.52
2018-12-26T01:38:19.504Z,98621.91
2018-12-26T01:40:51.587Z,98611.09
2018-12-26T01:43:28.332Z,98608.83
2018-12-26T01:46:04.456Z,98609.78
2018-12-26T01:48:36.925Z,98606.94
2018-12-26T01:51:11.491Z,98611.59
2018-12-26T01:53:45.413Z,98605.50
2018-12-26T01:56:28.053Z,98603.03
2018-12-26T01:59:02.304Z,98604.83
2018-12-26T02:01:49.170Z,98599.97
2018-12-26T02:04:23.503Z,98601.83
2018-12-26T02:06:55.103Z,98607.16
2018-12-26T02:09:28.275Z,98607.61
2018-12-26T02:12:02.040Z,98612.91
2018-12-26T02:14:38.321Z,98608.27
2018-12-26T02:17:18.144Z,98607.69
2018-12-26T02:19:54.350Z,98607.13
2018-12-26T02:22:28.816Z,98601.33
2018-12-26T02:25:03.210Z,98600.23
2018-12-26T02:27:35.071Z,98605.59
2018-12-26T02:30:06.392Z,98602.82
2018-12-26T02:32:39.836Z,98603.92
2018-12-26T02:35:13.700Z,98597.02
2018-12-26T02:37:44.964Z,98596.34
2018-12-26T02:40:19.455Z,98592.19
2018-12-26T02:42:53.894Z,98586.53
2018-12-26T02:45:32.553Z,98579.58
2018-12-26T02:48:03.932Z,98580.08
2018-12-26T02:50:38.557Z,98574.12
2018-12-26T02:53:14.727Z,98566.59
2018-12-26T02:55:50.338Z,98569.35
2018-12-26T02:58:24.902Z,98563.70
2018-12-26T03:00:58.581Z,98552.91
2018-12-26T03:03:30.165Z,98548.71
2018-12-26T03:06:05.214Z,98550.95
2018-12-26T03:08:36.970Z,98548.64
2018-12-26T03:11:08.084Z,98539.80
2018-12-26T03:13:42.031Z,98538.44
2018-12-26T03:16:15.046Z,98529.41
2018-12-26T03:18:51.507Z,98526.21
2018-12-26T03:21:23.162Z,98523.61
2018-12-26T03:23:55.397Z,98513.48
2018-12-26T03:26:28.912Z,98495.30
2018-12-26T03:29:00.230Z,98501.81
2018-12-26T03:31:31.669Z,98505.51
2018-12-26T03:34:03.578Z,98495.91
2018-12-26T03:36:34.981Z,98502.05
2018-12-26T03:39:07.687Z,98511.48
2018-12-26T03:41:42.595Z,98507.80
2018-12-26T03:44:14.360Z,98512.02
2018-12-26T03:46:46.482Z,98509.13
2018-12-26T03:49:23.094Z,98506.08
2018-12-26T03:51:54.337Z,98494.30
2018-12-26T03:54:25.744Z,98493.51
2018-12-26T03:57:05.528Z,98488.81
2018-12-26T03:59:31.017Z,98490.41
2018-12-26T04:02:02.987Z,98491.37
2018-12-26T04:04:35.046Z,98485.53
2018-12-26T04:07:06.746Z,98489.17
2018-12-26T04:09:37.975Z,98491.43
2018-12-26T04:12:09.891Z,98488.70
2018-12-26T04:14:41.235Z,98491.94
2018-12-26T04:17:15.926Z,98492.08
2018-12-26T04:19:47.920Z,98489.84
2018-12-26T04:22:19.589Z,98496.80
2018-12-26T04:24:51.346Z,98494.05
2018-12-26T04:27:23.367Z,98496.50
2018-12-26T04:29:55.043Z,98496.11
2018-12-26T04:32:26.788Z,98503.09
2018-12-26T04:34:58.323Z,98508.01
2018-12-26T04:37:29.711Z,98506.54
2018-12-26T04:40:01.544Z,98508.64
2018-12-26T04:42:33.053Z,98518.54
2018-12-26T04:45:04.489Z,98528.00
2018-12-26T04:47:36.228Z,98519.00
2018-12-26T04:50:07.606Z,98513.03
2018-12-26T04:52:39.320Z,98505.73
2018-12-26T04:55:10.857Z,98524.63
2018-12-26T04:57:42.508Z,98527.49
2018-12-26T05:00:14.104Z,98524.80
2018-12-26T05:02:46.132Z,98516.27
2018-12-26T05:05:17.768Z,98514.58
2018-12-26T05:07:50.620Z,98502.41
2018-12-26T05:10:22.018Z,98508.73
2018-12-26T05:12:52.932Z,98506.31
2018-12-26T05:15:24.594Z,98510.66
2018-12-26T05:17:56.594Z,98523.86
2018-12-26T05:20:28.136Z,98533.10
2018-12-26T05:22:59.438Z,98529.14
2018-12-26T05:25:31.258Z,98532.86
2018-12-26T05:28:02.546Z,98531.32
2018-12-26T05:30:34.303Z,98527.30
2018-12-26T05:33:05.869Z,98529.20
2018-12-26T05:35:37.152Z,98525.05
2018-12-26T05:38:08.128Z,98519.59
2018-12-26T05:40:39.679Z,98519.44
2018-12-26T05:43:11.310Z,98515.88
2018-12-26T05:45:42.829Z,98521.20
2018-12-26T05:48:14.506Z,98523.75
2018-12-26T05:50:46.274Z,98522.62
2018-12-26T05:53:17.749Z,98525.02
2018-12-26T05:55:49.539Z,98526.70
2018-12-26T05:58:21.723Z,98525.39
2018-12-26T06:00:53.754Z,98525.55
2018-12-26T06:03:25.253Z,98531.95
2018-12-26T06:05:56.863Z,98523.90
2018-12-26T06:08:28.605Z,98519.25
2018-12-26T06:11:03.460Z,98528.39
2018-12-26T06:13:35.257Z,98536.77
2018-12-26T06:16:06.850Z,98537.89
2018-12-26T06:18:38.940Z,98533.88
2018-12-26T06:21:18.243Z,98540.32
2018-12-26T06:23:49.512Z,98531.46
2018-12-26T06:26:21.293Z,98532.92
2018-12-26T06:28:52.639Z,98534.94
2018-12-26T06:31:24.414Z,98527.70
2018-12-26T06:33:56.226Z,98526.90
2018-12-26T06:36:27.377Z,98526.36
2018-12-26T06:38:58.688Z,98521.98
2018-12-26T06:41:30.253Z,98519.09
2018-12-26T06:44:01.535Z,98512.77
2018-12-26T06:46:33.282Z,98511.83
2018-12-26T06:49:05.206Z,98514.87
2018-12-26T06:51:42.704Z,98520.19
2018-12-26T06:54:17.292Z,98512.98
2018-12-26T06:56:49.191Z,98509.07
2018-12-26T06:59:21.067Z,98511.58
2018-12-26T07:01:52.359Z,98515.61
2018-12-26T07:04:24.306Z,98524.69
2018-12-26T07:06:56.038Z,98521.96
2018-12-26T07:09:28.149Z,98521.05
2018-12-26T07:11:59.735Z,98523.56
2018-12-26T07:14:30.975Z,98526.30
2018-12-26T07:17:08.905Z,98526.67
2018-12-26T07:19:40.784Z,98533.92
2018-12-26T07:22:12.411Z,98529.44
2018-12-26T07:24:44.032Z,98539.16
2018-12-26T07:27:16.859Z,98542.64
2018-12-26T07:29:48.189Z,98549.42
2018-12-26T07:32:20.019Z,98550.34
2018-12-26T07:34:51.763Z,98555.36
2018-12-26T07:37:23.549Z,98559.74
2018-12-26T07:39:55.215Z,98553.75
2018-12-26T07:42:26.786Z,98553.73
2018-12-26T07:44:58.750Z,98555.17
2018-12-26T07:47:34.327Z,98563.98
2018-12-26T07:50:05.679Z,98558.08
2018-12-26T07:52:37.263Z,98553.97
2018-12-26T07:55:08.247Z,98549.61
2018-12-26T07:57:39.726Z,98549.25
2018-12-26T08:00:10.903Z,98556.64
2018-12-26T08:02:49.242Z,98558.31
2018-12-26T08:05:20.834Z,98566.24
2018-12-26T08:07:52.335Z,98555.38
2018-12-26T08:10:23.991Z,98555.83
2018-12-26T08:12:55.555Z,98554.52
2018-12-26T08:15:28.499Z,98556.91
2018-12-26T08:17:59.987Z,98563.69
2018-12-26T08:20:32.130Z,98560.66
2018-12-26T08:23:03.696Z,98566.47
2018-12-26T08:25:36.251Z,98568.21
2018-12-26T08:28:08.132Z,98571.53
2018-12-26T08:30:39.174Z,98567.67
2018-12-26T08:33:12.839Z,98569.72
2018-12-26T08:35:44.682Z,98562.28
2018-12-26T08:38:16.761Z,98564.81
2018-12-26T08:40:48.319Z,98569.65
2018-12-26T08:43:20.194Z,98571.70
2018-12-26T08:45:55.674Z,98578.45
2018-12-26T08:48:27.579Z,98572.56
2018-12-26T08:50:59.069Z,98578.38
2018-12-26T08:53:30.480Z,98579.22
2018-12-26T08:56:03.351Z,98581.48
2018-12-26T08:58:35.484Z,98585.82
2018-12-26T09:01:07.583Z,98594.20
2018-12-26T09:03:39.096Z,98594.51
2018-12-26T09:06:09.997Z,98600.17
2018-12-26T09:08:42.379Z,98593.38
2018-12-26T09:11:14.794Z,98593.29
2018-12-26T09:13:46.064Z,98591.44
2018-12-26T09:16:17.746Z,98586.77
2018-12-26T09:18:50.240Z,98589.41
2018-12-26T09:21:24.192Z,98585.56
2018-12-26T09:23:57.402Z,98582.51
2018-12-26T09:26:30.104Z,98583.80
2018-12-26T09:29:04.213Z,98587.06
2018-12-26T09:31:36.216Z,98573.46
2018-12-26T09:34:07.846Z,98573.94
2018-12-26T09:36:39.468Z,98574.29
2018-12-26T09:39:11.343Z,98573.77
2018-12-26T09:41:43.454Z,98568.48
2018-12-26T09:44:15.566Z,98564.91
2018-12-26T09:46:46.577Z,98571.31
2018-12-26T09:49:18.188Z,98565.52
2018-12-26T09:51:50.267Z,98552.97
2018-12-26T09:54:22.102Z,98559.27
2018-12-26T09:56:56.600Z,98554.53
2018-12-26T09:59:28.044Z,98556.84
2018-12-26T10:01:59.946Z,98562.31
2018-12-26T10:04:31.409Z,98552.50
2018-12-26T10:07:03.182Z,98555.58
2018-12-26T10:09:38.764Z,98550.22
2018-12-26T10:12:10.475Z,98546.53
2018-12-26T10:14:42.362Z,98544.23
2018-12-26T10:17:14.125Z,98543.94
2018-12-26T10:19:45.873Z,98541.35
2018-12-26T10:22:17.873Z,98540.38
2018-12-26T10:24:49.508Z,98536.19
2018-12-26T10:27:20.884Z,98538.61
2018-12-26T10:29:52.964Z,98545.72
2018-12-26T10:32:26.736Z,98544.73
2018-12-26T10:34:58.970Z,98541.67
2018-12-26T10:37:30.679Z,98535.83
2018-12-26T10:40:02.559Z,98530.81
2018-12-26T10:42:33.777Z,98535.09
2018-12-26T10:45:09.319Z,98534.58
2018-12-26T10:47:41.143Z,98537.05
2018-12-26T10:50:14.445Z,98531.81
2018-12-26T10:52:46.085Z,98531.13
2018-12-26T10:55:24.062Z,98521.02
2018-12-26T10:57:58.136Z,98515.41
2018-12-26T11:00:29.858Z,98514.75
2018-12-26T11:03:05.055Z,98510.08
2018-12-26T11:05:36.561Z,98509.32
2018-12-26T11:08:07.414Z,98497.89
2018-12-26T11:10:38.539Z,98490.30
2018-12-26T11:13:10.033Z,98489.44
2018-12-26T11:15:41.276Z,98489.75
2018-12-26T11:18:13.462Z,98492.66
2018-12-26T11:20:45.125Z,98487.94
2018-12-26T11:23:16.127Z,98479.11
2018-12-26T11:25:50.063Z,98484.05
2018-12-26T11:28:21.798Z,98479.41
2018-12-26T11:30:53.118Z,98483.44
2018-12-26T11:33:24.226Z,98476.13
2018-12-26T11:36:02.917Z,98466.91
2018-12-26T11:38:35.353Z,98462.36
2018-12-26T11:41:06.281Z,98464.01
2018-12-26T11:43:37.758Z,98462.46
2018-12-26T11:46:09.146Z,98469.61
2018-12-26T11:48:40.125Z,98464.74
2018-12-26T11:51:11.392Z,98460.94
2018-12-26T11:53:46.642Z,98465.84
2018-12-26T11:56:20.493Z,98457.55
2018-12-26T11:58:53.916Z,98454.31
2018-12-26T12:01:26.149Z,98453.56
2018-12-26T12:03:57.532Z,98451.52
2018-12-26T12:06:29.177Z,98445.80
2018-12-26T12:09:00.603Z,98444.79
2018-12-26T12:11:32.241Z,98442.65
2018-12-26T12:14:03.564Z,98447.26
2018-12-26T12:16:35.323Z,98441.72
2018-12-26T12:19:20.324Z,98448.39
2018-12-26T12:21:52.279Z,98443.09
2018-12-26T12:24:23.632Z,98441.02
2018-12-26T12:26:55.495Z,98437.24
2018-12-26T12:29:35.796Z,98433.86
2018-12-26T12:32:00.200Z,98436.52
2018-12-26T12:34:31.660Z,98439.88
2018-12-26T12:37:03.504Z,98436.41
2018-12-26T12:39:34.946Z,98440.48
2018-12-26T12:42:06.170Z,98439.26
2018-12-26T12:44:38.078Z,98443.39
2018-12-26T12:47:09.611Z,98447.09
2018-12-26T12:49:41.396Z,98452.16
2018-12-26T12:52:13.253Z,98448.80
2018-12-26T12:54:44.507Z,98446.27
2018-12-26T12:57:16.440Z,98446.33
2018-12-26T12:59:48.129Z,98449.80
2018-12-26T13:02:20.128Z,98442.69
2018-12-26T13:04:51.923Z,98446.66
2018-12-26T13:07:23.557Z,98448.73
2018-12-26T13:09:54.190Z,98446.21
2018-12-26T13:12:25.876Z,98449.41
2018-12-26T13:14:57.753Z,98446.37
2018-12-26T13:17:29.500Z,98445.38
2018-12-26T13:20:01.047Z,98448.48
2018-12-26T13:22:32.920Z,98446.91
2018-12-26T13:25:03.819Z,98448.38
2018-12-26T13:27:35.418Z,98449.41
2018-12-26T13:30:07.856Z,98449.19
2018-12-26T13:32:39.885Z,98447.14
2018-12-26T13:35:11.426Z,98443.27
2018-12-26T13:37:45.578Z,98439.63
2018-12-26T13:40:17.543Z,98433.93
2018-12-26T13:42:52.979Z,98434.45
2018-12-26T13:45:24.320Z,98444.52
2018-12-26T13:47:55.931Z,98443.42
2018-12-26T13:50:27.843Z,98436.84
2018-12-26T13:52:59.540Z,98437.75
2018-12-26T13:55:31.580Z,98435.62
2018-12-26T13:58:03.435Z,98438.25
2018-12-26T14:00:35.249Z,98447.33
2018-12-26T14:03:05.975Z,98447.15
2018-12-26T14:05:37.192Z,98448.14
2018-12-26T14:08:08.915Z,98457.81
2018-12-26T14:10:39.953Z,98449.92
2018-12-26T14:13:11.755Z,98450.73
2018-12-26T14:15:43.310Z,98454.76
2018-12-26T14:18:15.292Z,98448.15
2018-12-26T14:20:46.939Z,98448.77
2018-12-26T14:23:18.771Z,98446.00
2018-12-26T14:25:50.768Z,98451.36
2018-12-26T14:28:22.419Z,98447.81
2018-12-26T14:30:53.942Z,98449.28
2018-12-26T14:33:26.137Z,98443.30
2018-12-26T14:36:03.370Z,98440.59
2018-12-26T14:38:34.965Z,98446.53
2018-12-26T14:41:08.797Z,98443.63
2018-12-26T14:43:40.438Z,98442.50
2018-12-26T14:46:12.123Z,98440.91
2018-12-26T14:48:53.536Z,98436.21
2018-12-26T14:51:26.503Z,98439.89
2018-12-26T14:54:05.803Z,98438.75
2018-12-26T14:56:41.124Z,98436.81
2018-12-26T14:59:13.532Z,98440.52
2018-12-26T15:01:57.497Z,98439.23
2018-12-26T15:04:30.610Z,98445.13
2018-12-26T15:07:02.614Z,98445.59
2018-12-26T15:09:42.196Z,98444.02
2018-12-26T15:12:21.679Z,98443.20
2018-12-26T15:15:01.659Z,98438.85
2018-12-26T15:17:33.760Z,98438.05
2018-12-26T15:20:06.642Z,98433.23
2018-12-26T15:22:44.485Z,98437.22
2018-12-26T15:25:16.112Z,98429.12
2018-12-26T15:27:47.750Z,98423.28
2018-12-26T15:30:19.524Z,98426.14
2018-12-26T15:32:51.122Z,98433.40
2018-12-26T15:35:24.743Z,98431.58
2018-12-26T15:37:57.445Z,98428.50
2018-12-26T15:40:29.384Z,98428.81
2018-12-26T15:43:00.020Z,98432.84
2018-12-26T15:45:32.359Z,98434.33
2018-12-26T15:48:03.870Z,98435.60
2018-12-26T15:50:35.833Z,98440.61
2018-12-26T15:53:07.831Z,98433.84
2018-12-26T15:55:41.373Z,98433.53
2018-12-26T15:58:12.889Z,98430.02
2018-12-26T16:00:45.975Z,98426.30
2018-12-26T16:03:18.118Z,98430.28
2018-12-26T16:05:49.988Z,98427.67
2018-12-26T16:08:27.015Z,98433.48
2018-12-26T16:10:58.192Z,98432.66
2018-12-26T16:13:29.270Z,98432.02
2018-12-26T16:16:00.850Z,98430.44
2018-12-26T16:18:32.414Z,98432.06
2018-12-26T16:21:03.943Z,98431.27
2018-12-26T16:23:35.251Z,98426.55
2018-12-26T16:26:13.658Z,98434.28
2018-12-26T16:28:44.922Z,98439.11
2018-12-26T16:31:15.927Z,98435.89
2018-12-26T16:33:50.013Z,98434.01
2018-12-26T16:36:21.969Z,98433.63
2018-12-26T16:38:56.444Z,98446.02
2018-12-26T16:41:32.091Z,98448.20
2018-12-26T16:44:03.776Z,98451.95
2018-12-26T16:46:35.106Z,98450.66
2018-12-26T16:49:06.651Z,98453.23
2018-12-26T16:51:38.251Z,98454.48
2018-12-26T16:54:09.146Z,98456.31
2018-12-26T16:56:40.464Z,98451.77
2018-12-26T16:59:12.670Z,98449.85
2018-12-26T17:01:44.552Z,98449.32
2018-12-26T17:04:16.482Z,98450.16
2018-12-26T17:06:48.949Z,98447.53
2018-12-26T17:09:20.399Z,98439.80
2018-12-26T17:11:51.819Z,98445.22
2018-12-26T17:14:23.356Z,98446.50
2018-12-26T17:16:54.630Z,98446.30
2018-12-26T17:19:25.961Z,98443.23
2018-12-26T17:21:57.794Z,98442.32
2018-12-26T17:24:29.656Z,98444.59
2018-12-26T17:27:01.493Z,98444.91
2018-12-26T17:29:33.510Z,98438.26
2018-12-26T17:32:11.768Z,98443.70
2018-12-26T17:34:43.651Z,98449.39
2018-12-26T17:37:15.595Z,98449.77
2018-12-26T17:39:47.146Z,98452.38
2018-12-26T17:42:18.459Z,98453.52
2018-12-26T17:44:50.506Z,98453.59
2018-12-26T17:47:23.832Z,98447.03
2018-12-26T17:50:39.539Z,98444.43
2018-12-26T17:53:16.291Z,98446.65
2018-12-26T17:56:42.444Z,98449.99
2018-12-26T18:00:11.330Z,98453.20
2018-12-26T18:02:59.639Z,98456.44
2018-12-26T18:05:34.027Z,98455.55
2018-12-26T18:08:19.159Z,98465.39
2018-12-26T18:10:55.228Z,98467.38
2018-12-26T18:13:26.845Z,98467.19
2018-12-26T18:16:21.350Z,98464.73
2018-12-26T18:18:55.466Z,98467.80
2018-12-26T18:21:26.418Z,98471.28
2018-12-26T18:23:59.366Z,98473.55
2018-12-26T18:26:32.928Z,98471.48
2018-12-26T18:29:05.802Z,98481.38
2018-12-26T18:31:38.898Z,98484.16
2018-12-26T18:34:13.770Z,98474.95
2018-12-26T18:36:46.689Z,98478.26
2018-12-26T18:39:21.324Z,98474.58
2018-12-26T18:41:53.611Z,98475.53
2018-12-26T18:44:25.685Z,98476.60
2018-12-26T18:47:00.578Z,98473.28
2018-12-26T18:49:33.607Z,98464.55
2018-12-26T18:52:05.559Z,98466.55
2018-12-26T18:54:46.579Z,98468.52
2018-12-26T18:57:19.957Z,98467.52
2018-12-26T18:59:51.573Z,98459.97
2018-12-26T19:02:24.662Z,98460.35
2018-12-26T19:04:59.859Z,98459.33
2018-12-26T19:07:35.384Z,98460.09
2018-12-26T19:10:08.573Z,98464.08
2018-12-26T19:12:40.275Z,98463.08
2018-12-26T19:15:12.326Z,98468.40
2018-12-26T19:17:44.099Z,98462.15
2018-12-26T19:20:17.021Z,98464.91
2018-12-26T19:22:48.756Z,98464.73
2018-12-26T19:25:20.403Z,98472.16
2018-12-26T19:27:51.883Z,98466.58
2018-12-26T19:30:26.926Z,98464.25
2018-12-26T19:33:01.072Z,98466.33
2018-12-26T19:35:41.564Z,98466.66
2018-12-26T19:38:14.942Z,98464.98
2018-12-26T19:40:46.355Z,98462.62
2018-12-26T19:43:17.129Z,98462.05
2018-12-26T19:46:06.897Z,98457.22
2018-12-26T19:48:38.772Z,98453.16
2018-12-26T19:51:16.405Z,98448.27
2018-12-26T19:53:50.240Z,98445.01
2018-12-26T19:56:23.013Z,98441.34
2018-12-26T19:58:54.744Z,98438.31
2018-12-26T20:01:25.891Z,98439.01
2018-12-26T20:03:57.483Z,98434.05
2018-12-26T20:06:29.114Z,98435.29
2018-12-26T20:09:04.751Z,98427.40
2018-12-26T20:11:39.955Z,98428.41
2018-12-26T20:14:38.732Z,98425.91
2018-12-26T20:17:14.455Z,98429.13
2018-12-26T20:19:49.739Z,98428.66
2018-12-26T20:22:21.598Z,98430.73
2018-12-26T20:24:55.182Z,98424.98
2018-12-26T20:27:38.914Z,98425.56
2018-12-26T20:30:16.396Z,98425.36
2018-12-26T20:32:54.134Z,98426.41
2018-12-26T20:35:25.602Z,98423.84
2018-12-26T20:37:58.256Z,98423.03
2018-12-26T20:40:33.670Z,98413.35
2018-12-26T20:43:05.506Z,98413.30
2018-12-26T20:45:47.458Z,98416.42
2018-12-26T20:48:19.430Z,98412.62
2018-12-26T20:50:51.143Z,98419.18
2018-12-26T20:53:25.324Z,98409.24
2018-12-26T20:56:07.007Z,98411.75
2018-12-26T20:58:40.262Z,98412.59
2018-12-26T21:01:13.808Z,98407.55
2018-12-26T21:03:48.523Z,98414.13
2018-12-26T21:06:20.017Z,98412.36
2018-12-26T21:08:52.193Z,98412.28
2018-12-26T21:11:26.153Z,98401.66
2018-12-26T21:13:58.156Z,98394.05
2018-12-26T21:16:30.829Z,98391.64
2018-12-26T21:19:02.527Z,98385.69
2018-12-26T21:21:34.367Z,98391.77
2018-12-26T21:24:17.061Z,98388.67
2018-12-26T21:26:53.844Z,98384.87
2018-12-26T21:29:28.301Z,98388.00
2018-12-26T21:32:03.931Z,98378.59
2018-12-26T21:34:36.083Z,98382.69
2018-12-26T21:37:07.138Z,98380.45
2018-12-26T21:39:41.589Z,98378.87
2018-12-26T21:42:16.246Z,98369.37
2018-12-26T21:44:54.721Z,98369.01
2018-12-26T21:47:25.876Z,98364.30
2018-12-26T21:49:57.231Z,98370.23
2018-12-26T21:52:37.267Z,98360.17
2018-12-26T21:55:08.295Z,98361.59
2018-12-26T21:57:39.930Z,98358.34
2018-12-26T22:00:14.436Z,98362.37
2018-12-26T22:02:48.289Z,98366.02
2018-12-26T22:05:19.984Z,98361.87
2018-12-26T22:07:55.354Z,98360.56
2018-12-26T22:10:37.565Z,98363.50
2018-12-26T22:13:11.375Z,98365.02
2018-12-26T22:15:56.928Z,98366.46
2018-12-26T22:18:32.266Z,98365.03
2018-12-26T22:21:03.670Z,98358.59
2018-12-26T22:23:35.730Z,98361.39
2018-12-26T22:26:08.824Z,98363.66
2018-12-26T22:28:40.632Z,98364.23
2018-12-26T22:31:11.977Z,98363.36
2018-12-26T22:33:43.539Z,98364.81
2018-12-26T22:36:15.468Z,98362.81
2018-12-26T22:38:47.419Z,98357.26
2018-12-26T22:41:20.489Z,98371.13
2018-12-26T22:43:52.512Z,98358.70
2018-12-26T22:46:23.797Z,98362.56
2018-12-26T22:48:59.607Z,98357.89
2018-12-26T22:51:31.530Z,98351.09
2018-12-26T22:54:03.249Z,98350.91
2018-12-26T22:56:50.440Z,98347.66
2018-12-26T22:59:22.581Z,98350.03
2018-12-26T23:02:00.199Z,98347.27
2018-12-26T23:04:55.410Z,98349.69
2018-12-26T23:07:26.995Z,98354.09
2018-12-26T23:09:58.977Z,98346.89
2018-12-26T23:12:32.826Z,98344.98
2018-12-26T23:15:07.137Z,98341.30
2018-12-26T23:17:42.532Z,98336.25
2018-12-26T23:20:30.618Z,98342.83
2018-12-26T23:23:13.504Z,98341.89
2018-12-26T23:25:54.624Z,98339.27
2018-12-26T23:28:26.533Z,98341.02
2018-12-26T23:30:59.749Z,98336.38
2018-12-26T23:33:31.555Z,98330.92
2018-12-26T23:36:03.594Z,98327.16
2018-12-26T23:38:34.606Z,98329.27
2018-12-26T23:41:11.459Z,98326.48
2018-12-26T23:43:43.041Z,98322.20
2018-12-26T23:46:15.302Z,98319.78
2018-12-26T23:48:47.008Z,98318.98
2018-12-26T23:51:18.203Z,98320.13
2018-12-26T23:53:49.834Z,98315.64
2018-12-26T23:56:21.530Z,98313.73
2018-12-26T23:58:52.862Z,98314.88
